Daily Summary

Last 30 Days

Daily Data | Pacific/Honolulu
as of 10/27/21 12:48 AM HST
Date Daily Max Temp (°F) Time of Max Temp Daily Min Temp (°F) Time of Min Temp Daily Rain (In) Seasonal Rainfall (In) Wind Spd (mph) Daily Max Wind (mph) Time of Max Wind Max Wind Dir (°) Daily Solar Rad (Cal/cm2) Daily ETo (in) Dew Pt (°F) Max RH (%) Min RH (%) Max Press (inHg) Time of Max Press Min Press (inHg) Time of Min Press Bat Volt Min Day (V)
10/26/21 83.7 1428 74.9 2355 0.00 23.11 5.6 20.2 1546 NNE | 24 384 0.150 67.3 84 51 30.13 2325 30.01 1428 12.7
10/25/21 82.7 1212 75.7 2253 0.00 23.11 6.8 27.9 1716 NE | 47 474 0.180 66.9 75 59 30.16 0943 30.05 1433 12.8
10/24/21 83.1 1325 73.7 0911 0.08 23.11 7.5 33.5 1922 NNE | 32 425 0.156 68.8 88 58 30.17 0951 30.03 1458 12.7
10/23/21 82.1 1124 76.4 0625 0.00 23.03 8.6 31.0 1408 NNE | 31 499 0.196 66.4 75 57 30.14 0847 30.01 1548 12.7
10/22/21 83.2 1233 74.3 0037 0.00 23.03 6.8 28.4 1624 NE | 39 501 0.185 68.0 84 59 30.13 2222 30.02 1541 12.8
10/21/21 81.1 1354 72.3 0614 0.01 23.03 5.1 22.8 1514 NE | 34 410 0.137 69.4 92 65 30.12 2220 29.98 1511 12.7
10/20/21 82.5 1136 73.7 0532 0.00 23.02 3.6 16.5 1404 NNE | 25 452 0.160 64.4 74 52 30.13 0858 30.00 1522 12.7
10/19/21 83.1 1343 75.0 0621 0.00 23.02 4.5 17.1 1011 E | 99 415 0.154 65.1 77 52 30.15 0920 30.03 1619 12.7
10/18/21 81.9 1019 75.7 0555 0.00 23.02 8.8 28.4 1325 NE | 35 523 0.203 66.3 75 55 30.15 2206 30.03 1514 12.7
10/17/21 82.0 1119 75.4 0431 0.00 23.02 9.0 26.3 1243 NNE | 32 464 0.190 66.0 76 58 30.13 2221 30.02 1428 12.8
10/16/21 81.6 1149 73.7 0525 0.09 23.02 8.8 28.2 1725 NE | 53 440 0.169 66.4 82 62 30.12 2129 30.00 0526 12.8
10/15/21 81.5 1341 74.3 0430 0.04 22.93 9.2 28.7 0949 NE | 56 470 0.180 67.1 82 60 30.09 2234 29.98 1501 12.8
10/14/21 82.3 1352 74.6 2016 0.09 22.89 7.3 29.7 0145 NNE | 25 420 0.153 68.3 84 61 30.14 0001 30.00 1429 12.8
10/13/21 82.9 1226 75.4 0245 0.00 22.80 8.0 31.8 0753 NNE | 26 370 0.143 69.6 87 62 30.17 2153 30.04 0444 12.8
10/12/21 81.6 1226 76.5 2311 0.02 22.80 10.7 32.9 1358 NNE | 29 438 0.162 71.5 85 72 30.15 2309 30.04 0235 12.8
10/11/21 82.9 1327 76.5 0447 0.06 22.78 10.0 29.1 0808 NNE | 24 496 0.194 68.8 87 61 30.12 0922 30.01 1535 12.8
10/10/21 82.3 1305 73.1 0532 0.08 22.72 10.4 32.9 0846 NE | 35 490 0.197 67.0 83 58 30.12 2216 29.99 0357 12.8
10/9/21 79.6 1536 74.3 0342 0.06 22.64 11.2 36.1 0459 NNE | 30 382 0.162 67.3 83 65 30.09 1024 29.97 1328 12.7
10/8/21 83.5 1257 75.6 0716 0.01 22.58 9.7 33.0 1625 NNE | 31 534 0.217 66.4 77 55 30.14 0848 30.00 1603 12.8
10/7/21 82.8 1250 75.3 0303 0.05 22.57 10.2 31.8 1227 NNE | 33 534 0.212 66.6 78 55 30.15 0936 30.02 1443 12.8
10/6/21 82.8 1339 76.2 0738 0.00 22.52 8.8 30.0 1531 NNE | 33 483 0.195 67.1 78 56 30.12 2219 30.00 0340 12.7
10/5/21 83.4 1302 77.0 0341 0.00 22.52 8.5 26.8 1526 NNE | 32 558 0.212 68.1 75 57 30.07 2241 29.91 0343 12.7
10/4/21 84.0 1253 75.6 0114 0.01 22.52 8.2 30.0 1642 NNE | 23 508 0.195 68.2 81 57 29.99 0918 29.87 1459 12.7
10/3/21 83.7 1053 75.3 0213 0.02 22.51 6.8 27.0 1524 NE | 36 548 0.194 69.4 86 61 30.00 0936 29.87 1619 12.7
10/2/21 83.8 1248 76.0 0347 0.00 22.49 8.2 27.4 1732 NE | 52 541 0.203 69.1 82 59 30.04 1020 29.91 1644 12.7
10/1/21 84.0 1202 75.4 0441 0.01 22.49 8.2 31.0 1503 NE | 34 572 0.212 68.6 84 58 30.06 0853 29.94 1504 12.8
9/30/21 82.8 1207 75.1 0636 0.05 22.48 6.7 21.4 1139 NNE | 33 470 0.166 69.8 84 66 30.08 0900 29.97 1511 12.7
9/29/21 84.5 1307 76.2 0546 0.00 22.43 6.9 20.9 1455 NE | 34 567 0.209 68.2 77 57 30.09 0938 29.97 1453 12.8
9/28/21 84.0 1244 75.4 0200 0.01 22.43 7.5 31.5 1635 NNE | 26 516 0.192 68.0 78 61 30.12 0009 30.01 1619 12.7
9/27/21 83.9 1311 75.5 1951 0.03 22.42 7.4 25.5 1336 NNE | 30 504 0.186 69.3 83 63 30.16 0943 30.04 1701 12.8
Max 84.5 - 77.0 - 0.09 - 11.2 36.1 - - 572 0.217 71.5 92 72 30.17 - 30.05 - 12.8
Avg - - - - - - 8.0 - - - - - 67.8 - - - - - - -
Min 79.6 - 72.3 - 0.00 - 3.6 16.5 - - 370 0.137 64.4 74 51 29.99 - 29.87 - 12.7